createdAt,value
2019-05-09T00:01:04.002Z,95182.16
2019-05-09T00:03:33.609Z,95177.39
2019-05-09T00:06:04.606Z,95175.05
2019-05-09T00:08:33.656Z,95175.86
2019-05-09T00:11:03.682Z,95172.74
2019-05-09T00:13:34.100Z,95172.26
2019-05-09T00:16:03.806Z,95171.75
2019-05-09T00:18:33.717Z,95173.90
2019-05-09T00:21:13.338Z,95181.36
2019-05-09T00:23:43.734Z,95172.30
2019-05-09T00:26:13.518Z,95175.26
2019-05-09T00:28:46.103Z,95180.61
2019-05-09T00:31:30.013Z,95175.28
2019-05-09T00:34:04.202Z,95171.28
2019-05-09T00:36:33.483Z,95172.09
2019-05-09T00:39:04.123Z,95168.05
2019-05-09T00:41:33.470Z,95165.91
2019-05-09T00:44:09.235Z,95163.52
2019-05-09T00:46:48.876Z,95164.59
2019-05-09T00:49:23.425Z,95162.49
2019-05-09T00:51:54.057Z,95160.91
2019-05-09T00:54:24.041Z,95161.70
2019-05-09T00:56:54.028Z,95173.94
2019-05-09T00:59:24.141Z,95162.76
2019-05-09T01:01:54.313Z,95157.20
2019-05-09T01:04:24.235Z,95153.75
2019-05-09T01:06:54.119Z,95157.72
2019-05-09T01:09:24.149Z,95153.97
2019-05-09T01:11:53.788Z,95146.53
2019-05-09T01:14:23.608Z,95140.91
2019-05-09T01:16:53.604Z,95143.34
2019-05-09T01:19:23.440Z,95146.80
2019-05-09T01:21:54.212Z,95144.91
2019-05-09T01:24:23.713Z,95141.21
2019-05-09T01:26:54.241Z,95144.42
2019-05-09T01:29:23.570Z,95149.12
2019-05-09T01:31:54.940Z,95153.97
2019-05-09T01:34:28.136Z,95145.40
2019-05-09T01:37:07.624Z,95146.00
2019-05-09T01:39:37.814Z,95136.69
2019-05-09T01:42:07.170Z,95146.02
2019-05-09T01:44:36.516Z,95153.72
2019-05-09T01:47:05.990Z,95130.05
2019-05-09T01:49:35.267Z,95130.80
2019-05-09T01:52:04.475Z,95137.23
2019-05-09T01:54:35.991Z,95136.45
2019-05-09T01:57:05.159Z,95137.50
2019-05-09T01:59:34.400Z,95145.45
2019-05-09T02:02:08.266Z,95149.20
2019-05-09T02:04:34.798Z,95139.61
2019-05-09T02:07:04.435Z,95151.08
2019-05-09T02:09:34.382Z,95148.71
2019-05-09T02:12:04.239Z,95145.42
2019-05-09T02:14:51.601Z,95142.49
2019-05-09T02:17:29.695Z,95144.92
2019-05-09T02:19:58.861Z,95140.94
2019-05-09T02:22:34.719Z,95136.94
2019-05-09T02:25:06.125Z,95137.45
2019-05-09T02:27:35.261Z,95135.84
2019-05-09T02:30:06.052Z,95130.22
2019-05-09T02:32:35.744Z,95127.81
2019-05-09T02:35:05.850Z,95130.16
2019-05-09T02:37:38.541Z,95116.58
2019-05-09T02:40:09.693Z,95120.30
2019-05-09T02:42:39.691Z,95122.97
2019-05-09T02:45:09.898Z,95122.37
2019-05-09T02:47:39.090Z,95119.38
2019-05-09T02:50:09.801Z,95116.98
2019-05-09T02:52:39.761Z,95125.71
2019-05-09T02:55:10.740Z,95120.00
2019-05-09T02:57:40.109Z,95120.27
2019-05-09T03:00:28.919Z,95120.77
2019-05-09T03:03:19.879Z,95113.53
2019-05-09T03:05:48.862Z,95115.31
2019-05-09T03:08:19.418Z,95110.50
2019-05-09T03:10:49.241Z,95105.13
2019-05-09T03:13:19.207Z,95101.97
2019-05-09T03:15:50.249Z,95103.30
2019-05-09T03:18:19.399Z,95101.16
2019-05-09T03:21:10.283Z,95109.66
2019-05-09T03:23:39.463Z,95108.59
2019-05-09T03:26:10.341Z,95099.22
2019-05-09T03:28:49.687Z,95107.87
2019-05-09T03:31:20.106Z,95107.96
2019-05-09T03:33:50.276Z,95099.16
2019-05-09T03:36:19.680Z,95100.35
2019-05-09T03:38:48.839Z,95108.42
2019-05-09T03:41:18.056Z,95103.09
2019-05-09T03:43:48.266Z,95094.55
2019-05-09T03:46:48.516Z,95093.50
2019-05-09T03:49:18.270Z,95097.76
2019-05-09T03:51:48.238Z,95095.05
2019-05-09T03:54:18.376Z,95089.46
2019-05-09T03:56:52.824Z,95095.62
2019-05-09T03:59:22.000Z,95097.76
2019-05-09T04:01:51.191Z,95092.16
2019-05-09T04:04:20.500Z,95093.19
2019-05-09T04:06:49.677Z,95090.26
2019-05-09T04:09:18.832Z,95091.28
2019-05-09T04:11:48.631Z,95095.52
2019-05-09T04:14:21.765Z,95086.98
2019-05-09T04:16:51.063Z,95089.95
2019-05-09T04:19:20.414Z,95089.30
2019-05-09T04:21:49.788Z,95092.16
2019-05-09T04:24:19.061Z,95089.83
2019-05-09T04:26:57.576Z,95086.23
2019-05-09T04:29:28.540Z,95087.83
2019-05-09T04:31:58.269Z,95090.28
2019-05-09T04:34:27.728Z,95086.05
2019-05-09T04:37:03.689Z,95088.06
2019-05-09T04:39:33.178Z,95079.33
2019-05-09T04:42:05.427Z,95077.56
2019-05-09T04:44:42.165Z,95077.83
2019-05-09T04:47:11.670Z,95078.28
2019-05-09T04:49:45.116Z,95080.11
2019-05-09T04:52:12.208Z,95081.53
2019-05-09T04:54:41.575Z,95084.77
2019-05-09T04:57:10.915Z,95086.09
2019-05-09T04:59:40.228Z,95088.72
2019-05-09T05:02:34.366Z,95088.11
2019-05-09T05:05:03.927Z,95088.00
2019-05-09T05:07:33.428Z,95096.14
2019-05-09T05:10:02.881Z,95087.86
2019-05-09T05:12:32.081Z,95084.65
2019-05-09T05:15:01.487Z,95084.30
2019-05-09T05:17:30.914Z,95087.61
2019-05-09T05:20:01.251Z,95088.28
2019-05-09T05:22:38.685Z,95093.95
2019-05-09T05:25:09.289Z,95094.63
2019-05-09T05:27:39.051Z,95093.48
2019-05-09T05:30:09.040Z,95088.09
2019-05-09T05:33:00.579Z,95090.59
2019-05-09T05:35:37.578Z,95088.86
2019-05-09T05:38:08.529Z,95084.08
2019-05-09T05:40:45.195Z,95090.11
2019-05-09T05:43:09.453Z,95080.30
2019-05-09T05:45:47.918Z,95077.27
2019-05-09T05:48:21.485Z,95085.77
2019-05-09T05:50:50.857Z,95087.94
2019-05-09T05:53:20.569Z,95106.88
2019-05-09T05:55:52.646Z,95100.39
2019-05-09T05:58:21.019Z,95093.15
2019-05-09T06:00:50.261Z,95094.09
2019-05-09T06:03:19.575Z,95080.80
2019-05-09T06:05:51.614Z,95087.52
2019-05-09T06:08:19.901Z,95085.09
2019-05-09T06:10:49.239Z,95084.89
2019-05-09T06:13:18.500Z,95076.75
2019-05-09T06:15:48.217Z,95076.78
2019-05-09T06:18:18.464Z,95084.70
2019-05-09T06:20:48.594Z,95082.91
2019-05-09T06:23:18.552Z,95080.64
2019-05-09T06:25:48.592Z,95095.38
2019-05-09T06:28:18.370Z,95096.09
2019-05-09T06:30:47.877Z,95089.31
2019-05-09T06:33:18.075Z,95094.80
2019-05-09T06:35:48.167Z,95088.41
2019-05-09T06:38:18.689Z,95094.30
2019-05-09T06:40:48.336Z,95113.41
2019-05-09T06:43:19.378Z,95106.59
2019-05-09T06:46:08.112Z,95102.77
2019-05-09T06:48:37.826Z,95100.19
2019-05-09T06:51:07.495Z,95104.89
2019-05-09T06:53:38.003Z,95095.27
2019-05-09T06:56:07.749Z,95092.59
2019-05-09T06:58:38.412Z,95086.55
2019-05-09T07:01:14.879Z,95095.38
2019-05-09T07:03:44.653Z,95079.65
2019-05-09T07:06:24.994Z,95080.20
2019-05-09T07:09:13.204Z,95075.13
2019-05-09T07:11:42.681Z,95077.30
2019-05-09T07:14:38.262Z,95060.22
2019-05-09T07:17:08.231Z,95051.44
2019-05-09T07:19:38.287Z,95044.97
2019-05-09T07:22:35.814Z,95041.45
2019-05-09T07:25:12.039Z,95046.48
2019-05-09T07:27:41.457Z,95045.66
2019-05-09T07:30:25.380Z,95051.95
2019-05-09T07:33:01.371Z,95053.55
2019-05-09T07:35:30.908Z,95045.09
2019-05-09T07:38:00.204Z,95049.94
2019-05-09T07:40:30.723Z,95033.92
2019-05-09T07:43:00.324Z,95043.45
2019-05-09T07:45:29.956Z,95031.37
2019-05-09T07:47:59.321Z,95041.05
2019-05-09T07:50:28.780Z,95045.88
2019-05-09T07:52:58.414Z,95036.78
2019-05-09T07:55:27.838Z,95029.95
2019-05-09T07:57:59.145Z,95038.86
2019-05-09T08:00:33.441Z,95023.92
2019-05-09T08:03:03.523Z,95024.72
2019-05-09T08:05:32.839Z,95019.59
2019-05-09T08:08:02.246Z,95016.67
2019-05-09T08:10:33.344Z,95016.20
2019-05-09T08:13:02.639Z,95012.28
2019-05-09T08:15:31.999Z,95016.80
2019-05-09T08:18:01.371Z,95012.89
2019-05-09T08:20:30.768Z,95009.69
2019-05-09T08:23:02.044Z,95010.02
2019-05-09T08:25:31.174Z,95010.83
2019-05-09T08:28:00.512Z,95010.45
2019-05-09T08:30:35.681Z,95011.16
2019-05-09T08:33:00.908Z,95021.73
2019-05-09T08:35:30.346Z,95015.06
2019-05-09T08:37:59.792Z,95014.13
2019-05-09T08:40:29.265Z,95013.46
2019-05-09T08:42:59.094Z,95017.77
2019-05-09T08:45:31.473Z,95010.82
2019-05-09T08:47:59.879Z,95010.10
2019-05-09T08:50:38.681Z,95012.57
2019-05-09T08:53:08.256Z,95016.47
2019-05-09T08:55:38.483Z,95020.41
2019-05-09T08:58:08.294Z,95016.13
2019-05-09T09:00:39.123Z,95011.19
2019-05-09T09:03:08.744Z,95013.97
2019-05-09T09:05:38.422Z,95021.27
2019-05-09T09:08:08.575Z,95010.45
2019-05-09T09:10:38.723Z,95011.43
2019-05-09T09:13:09.001Z,95015.09
2019-05-09T09:18:09.943Z,95009.37
2019-05-09T09:20:39.275Z,95001.47
2019-05-09T09:23:09.224Z,94999.58
2019-05-09T09:25:39.300Z,95006.56
2019-05-09T09:28:09.142Z,94999.13
2019-05-09T09:30:39.045Z,94998.95
2019-05-09T09:33:13.154Z,94996.20
2019-05-09T09:35:39.867Z,94993.02
2019-05-09T09:38:09.608Z,95000.70
2019-05-09T09:40:38.997Z,95003.25
2019-05-09T09:43:09.387Z,94998.02
2019-05-09T09:45:38.834Z,94994.60
2019-05-09T09:48:09.266Z,95005.72
2019-05-09T09:50:38.889Z,94995.98
2019-05-09T09:53:09.113Z,94991.09
2019-05-09T09:55:38.873Z,94988.61
2019-05-09T09:58:08.513Z,94979.92
2019-05-09T10:00:48.249Z,94973.80
2019-05-09T10:03:18.676Z,94980.38
2019-05-09T10:05:48.713Z,94978.95
2019-05-09T10:08:18.549Z,94971.48
2019-05-09T10:10:48.601Z,94974.37
2019-05-09T10:13:18.690Z,94973.66
2019-05-09T10:16:13.132Z,94974.95
2019-05-09T10:18:46.665Z,94974.49
2019-05-09T10:21:22.635Z,94976.80
2019-05-09T10:23:51.987Z,94977.41
2019-05-09T10:26:21.425Z,94975.60
2019-05-09T10:28:50.832Z,94969.35
2019-05-09T10:31:20.392Z,94971.31
2019-05-09T10:33:49.793Z,94972.16
2019-05-09T10:36:19.190Z,94978.25
2019-05-09T10:38:48.546Z,94977.48
2019-05-09T10:41:18.072Z,94978.11
2019-05-09T10:44:08.979Z,94971.30
2019-05-09T10:46:53.595Z,94970.45
2019-05-09T10:49:18.810Z,94963.19
2019-05-09T10:51:48.597Z,94970.95
2019-05-09T10:54:18.639Z,94970.87
2019-05-09T10:56:48.798Z,94970.44
2019-05-09T10:59:18.499Z,94971.69
2019-05-09T11:01:49.674Z,94961.78
2019-05-09T11:04:19.299Z,94963.47
2019-05-09T11:06:48.668Z,94958.20
2019-05-09T11:09:18.479Z,94953.16
2019-05-09T11:11:48.572Z,94954.55
2019-05-09T11:14:32.193Z,94954.04
2019-05-09T11:16:59.211Z,94955.43
2019-05-09T11:19:20.464Z,94950.14
2019-05-09T11:21:49.910Z,94955.97
2019-05-09T11:24:19.373Z,94960.47
2019-05-09T11:26:48.938Z,94953.73
2019-05-09T11:29:18.816Z,94952.14
2019-05-09T11:31:48.376Z,94949.91
2019-05-09T11:34:18.826Z,94945.47
2019-05-09T11:36:49.844Z,94947.63
2019-05-09T11:39:35.235Z,94948.77
2019-05-09T11:41:50.541Z,94953.56
2019-05-09T11:44:20.213Z,94948.86
2019-05-09T11:46:49.701Z,94951.38
2019-05-09T11:49:19.179Z,94951.01
2019-05-09T11:51:48.553Z,94952.79
2019-05-09T11:54:19.475Z,94966.58
2019-05-09T11:56:49.081Z,94955.40
2019-05-09T11:59:19.027Z,94957.86
2019-05-09T12:01:48.689Z,94960.94
2019-05-09T12:04:18.893Z,94958.69
2019-05-09T12:06:49.327Z,94950.49
2019-05-09T12:09:18.906Z,94959.83
2019-05-09T12:11:48.616Z,94968.24
2019-05-09T12:14:17.981Z,94970.31
2019-05-09T12:16:48.142Z,94968.16
2019-05-09T12:19:18.140Z,94972.48
2019-05-09T12:21:48.566Z,94970.83
2019-05-09T12:24:18.518Z,94970.37
2019-05-09T12:26:48.402Z,94973.69
2019-05-09T12:29:19.538Z,94978.31
2019-05-09T12:31:49.243Z,94974.97
2019-05-09T12:34:19.535Z,94968.95
2019-05-09T12:36:49.828Z,94978.38
2019-05-09T12:39:19.503Z,94983.13
2019-05-09T12:41:48.874Z,94981.15
2019-05-09T12:44:18.597Z,94972.77
2019-05-09T12:46:48.982Z,94983.65
2019-05-09T12:49:19.181Z,94986.23
2019-05-09T12:51:48.759Z,94994.92
2019-05-09T12:54:19.065Z,94995.02
2019-05-09T12:56:48.805Z,95002.39
2019-05-09T12:59:18.892Z,95005.28
2019-05-09T13:01:49.272Z,95007.17
2019-05-09T13:04:19.207Z,95007.64
2019-05-09T13:06:49.094Z,95010.95
2019-05-09T13:09:18.677Z,95012.30
2019-05-09T13:11:48.331Z,95018.91
2019-05-09T13:14:19.244Z,95020.74
2019-05-09T13:17:08.236Z,95027.14
2019-05-09T13:19:40.945Z,95032.77
2019-05-09T13:22:10.280Z,95039.80
2019-05-09T13:24:39.580Z,95044.39
2019-05-09T13:27:08.929Z,95044.52
2019-05-09T13:29:38.402Z,95054.30
2019-05-09T13:32:08.752Z,95051.62
2019-05-09T13:34:38.592Z,95051.25
2019-05-09T13:37:09.087Z,95055.84
2019-05-09T13:39:39.734Z,95062.16
2019-05-09T13:42:09.318Z,95061.57
2019-05-09T13:44:41.456Z,95067.28
2019-05-09T13:47:10.914Z,95069.03
2019-05-09T13:49:40.708Z,95075.76
2019-05-09T13:52:10.346Z,95078.23
2019-05-09T13:54:39.807Z,95078.30
2019-05-09T13:57:09.241Z,95080.54
2019-05-09T13:59:38.602Z,95079.02
2019-05-09T14:02:08.376Z,95084.55
2019-05-09T14:04:39.466Z,95091.55
2019-05-09T14:07:08.902Z,95096.19
2019-05-09T14:09:38.719Z,95084.71
2019-05-09T14:12:09.288Z,95095.39
2019-05-09T14:14:39.596Z,95108.77
2019-05-09T14:17:13.530Z,95113.84
2019-05-09T14:19:45.911Z,95115.78
2019-05-09T14:22:11.032Z,95105.73
2019-05-09T14:24:40.569Z,95116.45
2019-05-09T14:27:09.946Z,95116.45
2019-05-09T14:29:39.409Z,95128.63
2019-05-09T14:32:08.927Z,95128.63
2019-05-09T14:34:42.366Z,95123.98
2019-05-09T14:37:09.838Z,95136.52
2019-05-09T14:39:54.542Z,95136.52
2019-05-09T14:42:10.157Z,95141.16
2019-05-09T14:44:39.633Z,95148.03
2019-05-09T14:47:08.904Z,95149.58
2019-05-09T14:49:43.339Z,95153.59
2019-05-09T14:52:09.161Z,95159.04
2019-05-09T14:54:39.290Z,95160.23
2019-05-09T14:57:09.635Z,95161.53
2019-05-09T14:59:39.421Z,95164.84
2019-05-09T15:02:09.331Z,95170.25
2019-05-09T15:04:38.888Z,95175.87
2019-05-09T15:07:08.276Z,95173.38
2019-05-09T15:09:37.729Z,95177.86
2019-05-09T15:12:07.116Z,95180.11
2019-05-09T15:14:38.346Z,95186.80
2019-05-09T15:17:08.810Z,95200.02
2019-05-09T15:19:38.767Z,95203.42
2019-05-09T15:22:08.671Z,95200.56
2019-05-09T15:24:38.931Z,95208.09
2019-05-09T15:27:08.628Z,95205.44
2019-05-09T15:29:39.096Z,95215.63
2019-05-09T15:32:12.270Z,95218.11
2019-05-09T15:34:39.997Z,95229.95
2019-05-09T15:37:09.453Z,95239.14
2019-05-09T15:39:38.795Z,95243.36
2019-05-09T15:42:08.179Z,95250.67
2019-05-09T15:44:37.835Z,95258.63
2019-05-09T15:47:14.073Z,95252.64
2019-05-09T15:49:43.347Z,95253.06
2019-05-09T15:52:12.747Z,95240.31
2019-05-09T15:54:42.251Z,95247.59
2019-05-09T15:57:11.572Z,95256.79
2019-05-09T15:59:40.977Z,95255.98
2019-05-09T16:02:10.471Z,95259.41
2019-05-09T16:04:40.420Z,95259.66
2019-05-09T16:07:10.148Z,95260.72
2019-05-09T16:09:39.792Z,95263.84
2019-05-09T16:12:09.273Z,95267.33
2019-05-09T16:14:38.742Z,95274.23
2019-05-09T16:17:08.171Z,95279.08
2019-05-09T16:19:37.943Z,95274.48
2019-05-09T16:22:08.090Z,95276.55
2019-05-09T16:24:38.142Z,95279.12
2019-05-09T16:27:08.532Z,95282.56
2019-05-09T16:29:38.470Z,95280.78
2019-05-09T16:32:08.784Z,95289.88
2019-05-09T16:34:38.815Z,95283.09
2019-05-09T16:37:08.398Z,95282.81
2019-05-09T16:39:38.009Z,95287.19
2019-05-09T16:42:07.691Z,95285.98
2019-05-09T16:44:37.726Z,95290.62
2019-05-09T16:47:08.506Z,95297.25
2019-05-09T16:49:38.657Z,95299.34
2019-05-09T16:52:08.272Z,95306.63
2019-05-09T16:54:40.411Z,95304.31
2019-05-09T16:57:09.596Z,95306.20
2019-05-09T16:59:38.975Z,95308.97
2019-05-09T17:02:18.950Z,95312.13
2019-05-09T17:04:39.983Z,95318.89
2019-05-09T17:07:09.260Z,95319.61
2019-05-09T17:09:42.708Z,95320.46
2019-05-09T17:12:12.118Z,95320.59
2019-05-09T17:14:41.552Z,95321.13
2019-05-09T17:17:10.933Z,95321.84
2019-05-09T17:19:40.270Z,95328.95
2019-05-09T17:22:15.046Z,95330.41
2019-05-09T17:24:48.227Z,95335.93
2019-05-09T17:27:18.803Z,95334.45
2019-05-09T17:29:48.207Z,95339.75
2019-05-09T17:32:18.404Z,95337.53
2019-05-09T17:34:48.032Z,95350.25
2019-05-09T17:37:17.893Z,95354.26
2019-05-09T17:39:47.339Z,95355.09
2019-05-09T17:42:18.297Z,95352.16
2019-05-09T17:44:48.779Z,95355.33
2019-05-09T17:47:18.527Z,95354.22
2019-05-09T17:49:48.302Z,95363.02
2019-05-09T17:52:18.377Z,95380.98
2019-05-09T17:54:48.656Z,95382.33
2019-05-09T17:57:18.975Z,95387.00
2019-05-09T17:59:49.001Z,95386.47
2019-05-09T18:02:18.660Z,95392.22
2019-05-09T18:04:48.285Z,95400.82
2019-05-09T18:07:18.176Z,95397.75
2019-05-09T18:09:48.409Z,95391.68
2019-05-09T18:12:18.965Z,95391.02
2019-05-09T18:14:48.568Z,95396.25
2019-05-09T18:17:18.354Z,95404.40
2019-05-09T18:19:47.690Z,95405.97
2019-05-09T18:22:18.600Z,95402.89
2019-05-09T18:24:48.415Z,95417.39
2019-05-09T18:27:18.288Z,95414.97
2019-05-09T18:29:47.620Z,95424.11
2019-05-09T18:32:42.251Z,95427.05
2019-05-09T18:35:17.302Z,95428.05
2019-05-09T18:37:48.105Z,95435.19
2019-05-09T18:40:18.365Z,95444.86
2019-05-09T18:42:48.059Z,95451.69
2019-05-09T18:45:18.688Z,95458.11
2019-05-09T18:47:48.347Z,95456.67
2019-05-09T18:50:18.095Z,95465.95
2019-05-09T18:52:47.420Z,95481.58
2019-05-09T18:55:17.513Z,95481.80
2019-05-09T18:57:46.933Z,95491.66
2019-05-09T19:00:20.313Z,95500.08
2019-05-09T19:02:49.932Z,95503.61
2019-05-09T19:05:20.100Z,95514.48
2019-05-09T19:07:52.699Z,95518.43
2019-05-09T19:10:22.297Z,95518.36
2019-05-09T19:12:51.750Z,95521.16
2019-05-09T19:15:36.574Z,95516.48
2019-05-09T19:18:12.609Z,95529.95
2019-05-09T19:20:47.156Z,95540.11
2019-05-09T19:23:16.680Z,95547.04
2019-05-09T19:25:46.108Z,95549.83
2019-05-09T19:28:15.704Z,95552.02
2019-05-09T19:30:45.242Z,95551.44
2019-05-09T19:33:14.811Z,95558.13
2019-05-09T19:35:44.172Z,95564.83
2019-05-09T19:38:13.555Z,95566.44
2019-05-09T19:40:43.073Z,95564.78
2019-05-09T19:43:12.394Z,95562.41
2019-05-09T19:45:41.745Z,95565.63
2019-05-09T19:48:11.110Z,95557.27
2019-05-09T19:50:40.468Z,95565.86
2019-05-09T19:53:10.404Z,95559.22
2019-05-09T19:55:40.231Z,95565.63
2019-05-09T19:58:09.574Z,95567.25
2019-05-09T20:00:39.087Z,95572.92
2019-05-09T20:03:08.715Z,95585.24
2019-05-09T20:05:38.134Z,95580.37
2019-05-09T20:08:07.694Z,95586.06
2019-05-09T20:10:54.689Z,95589.05
2019-05-09T20:13:34.410Z,95596.56
2019-05-09T20:16:03.670Z,95605.94
2019-05-09T20:18:32.931Z,95608.66
2019-05-09T20:21:02.355Z,95614.33
2019-05-09T20:23:31.956Z,95610.09
2019-05-09T20:26:01.389Z,95614.48
2019-05-09T20:28:30.727Z,95612.86
2019-05-09T20:31:00.173Z,95617.16
2019-05-09T20:33:29.494Z,95613.66
2019-05-09T20:35:58.801Z,95634.78
2019-05-09T20:38:28.390Z,95630.48
2019-05-09T20:40:58.007Z,95639.28
2019-05-09T20:43:27.568Z,95631.30
2019-05-09T20:45:57.134Z,95641.73
2019-05-09T20:48:26.713Z,95642.55
2019-05-09T20:50:56.204Z,95646.87
2019-05-09T20:53:25.706Z,95645.27
2019-05-09T20:55:56.111Z,95658.95
2019-05-09T20:58:25.540Z,95661.37
2019-05-09T21:00:55.158Z,95662.44
2019-05-09T21:03:24.749Z,95666.72
2019-05-09T21:05:54.589Z,95668.06
2019-05-09T21:08:24.082Z,95663.78
2019-05-09T21:10:53.622Z,95670.17
2019-05-09T21:13:23.259Z,95664.05
2019-05-09T21:15:52.713Z,95671.28
2019-05-09T21:18:22.282Z,95676.09
2019-05-09T21:20:51.880Z,95682.80
2019-05-09T21:23:24.842Z,95688.95
2019-05-09T21:25:52.612Z,95687.87
2019-05-09T21:28:22.239Z,95688.72
2019-05-09T21:30:51.643Z,95695.91
2019-05-09T21:33:21.185Z,95698.08
2019-05-09T21:35:50.574Z,95696.21
2019-05-09T21:38:19.943Z,95704.24
2019-05-09T21:40:49.360Z,95706.39
2019-05-09T21:43:18.889Z,95705.05
2019-05-09T21:45:48.301Z,95709.60
2019-05-09T21:48:17.720Z,95708.80
2019-05-09T21:50:47.026Z,95706.12
2019-05-09T21:53:16.480Z,95713.31
2019-05-09T21:55:45.856Z,95711.70
2019-05-09T21:58:15.216Z,95713.65
2019-05-09T22:00:47.386Z,95718.77
2019-05-09T22:03:17.279Z,95719.06
2019-05-09T22:05:46.635Z,95723.88
2019-05-09T22:08:16.120Z,95728.20
2019-05-09T22:10:45.521Z,95732.51
2019-05-09T22:13:15.063Z,95724.24
2019-05-09T22:15:44.577Z,95731.49
2019-05-09T22:18:13.923Z,95734.47
2019-05-09T22:20:43.342Z,95746.53
2019-05-09T22:23:12.668Z,95748.37
2019-05-09T22:25:42.044Z,95753.48
2019-05-09T22:28:11.345Z,95747.33
2019-05-09T22:30:40.659Z,95752.98
2019-05-09T22:33:09.938Z,95750.89
2019-05-09T22:35:39.149Z,95754.67
2019-05-09T22:38:08.606Z,95758.98
2019-05-09T22:40:37.919Z,95749.34
2019-05-09T22:43:07.265Z,95758.71
2019-05-09T22:45:36.697Z,95752.03
2019-05-09T22:48:05.981Z,95752.57
2019-05-09T22:50:35.473Z,95749.66
2019-05-09T22:53:05.104Z,95754.22
2019-05-09T22:55:34.515Z,95755.28
2019-05-09T22:58:04.059Z,95757.97
2019-05-09T23:00:33.415Z,95761.97
2019-05-09T23:03:02.772Z,95765.17
2019-05-09T23:05:32.207Z,95758.21
2019-05-09T23:08:01.534Z,95768.63
2019-05-09T23:10:30.869Z,95775.05
2019-05-09T23:13:00.353Z,95771.83
2019-05-09T23:15:29.723Z,95771.59
2019-05-09T23:17:59.167Z,95773.70
2019-05-09T23:20:46.048Z,95775.03
2019-05-09T23:23:40.291Z,95771.57
2019-05-09T23:26:10.739Z,95779.31
2019-05-09T23:28:40.102Z,95777.71
2019-05-09T23:31:13.292Z,95783.83
2019-05-09T23:33:43.080Z,95791.02
2019-05-09T23:36:12.423Z,95781.41
2019-05-09T23:38:59.316Z,95788.63
2019-05-09T23:41:28.753Z,95795.31
2019-05-09T23:43:58.106Z,95798.53
2019-05-09T23:46:27.463Z,95797.44
2019-05-09T23:48:57.006Z,95805.44
2019-05-09T23:51:44.723Z,95807.06
2019-05-09T23:54:45.396Z,95811.33
2019-05-09T23:57:20.660Z,95801.71
